ADDS METAR Data INFO
IDs: Format: Raw Decoded Include TAF

Data at: 0255 UTC 21 Jan 2018

KGON 210156Z 27008KT 10SM CLR 06/M03 A2997 RMK AO2 SLP148 T00561033
KGON 210056Z 27006KT 10SM CLR 05/M03 A2995 RMK AO2 SLP142 T00501033
KGON 202356Z 25006KT 10SM CLR 03/M01 A2992 RMK AO2 SLP132 T00281011 10094 20028 53029
KGON 202256Z 24006KT 10SM CLR 05/M03 A2989 RMK AO2 SLP123 T00501028
KGON 202156Z 27007KT 10SM CLR 07/M03 A2986 RMK AO2 SLP112 T00721033
KGON 202056Z 26009KT 10SM CLR 08/M02 A2984 RMK AO2 SLP103 T00831022 53023
KGON 201956Z 25008KT 10SM CLR 08/M02 A2980 RMK AO2 SLP091 T00781017
KGON 201856Z 25012G20KT 10SM CLR 08/M02 A2978 RMK AO2 SLP083 T00831017
KGON 201756Z 25013G26KT 10SM CLR 08/M03 A2977 RMK AO2 PK WND 26026/1720 SLP080 T00831028 10083 20033 58016
KGON 201656Z 26015G23KT 10SM CLR 08/M03 A2980 RMK AO2 PK WND 25029/1615 SLP089 T00831033
KGON 201556Z 26018G28KT 10SM CLR 07/M03 A2980 RMK AO2 PK WND 26030/1545 SLP091 T00721033
KGON 201456Z 26014G22KT 220V290 10SM CLR 06/M03 A2981 RMK AO2 PK WND 25029/1443 SLP095 T00611033 53005
KGON 201356Z 24015G22KT 10SM CLR 05/M02 A2980 RMK AO2 SLP090 T00501022
KGON 201256Z 24014G19KT 10SM CLR 03/M02 A2980 RMK AO2 SLP090 T00331022
KGON 201156Z 24012KT 10SM CLR 03/M03 A2980 RMK AO2 SLP090 T00331033 10033 20006 56022
KGON 201056Z AUTO 23008KT 10SM CLR 03/M03 A2982 RMK AO2 SLP096 T00281028
KGON 200956Z AUTO 24007KT 10SM CLR 02/M03 A2984 RMK AO2 SLP104 T00221028
KGON 200856Z AUTO 25010KT 10SM CLR 03/M04 A2986 RMK AO2 SLP112 T00331044 56013
KGON 200756Z AUTO 22007KT 10SM CLR 02/M03 A2987 RMK AO2 SLP115 T00171028
KGON 200656Z AUTO 22007KT 10SM CLR 02/M03 A2988 RMK AO2 SLP119 T00171028
KGON 200556Z AUTO 21008KT 10SM CLR 01/M03 A2990 RMK AO2 SLP125 T00061033 10006 21044 56023
KGON 200456Z AUTO 23008KT 10SM CLR 01/M04 A2993 RMK AO2 SLP133 T00061044 400171056
KGON 200356Z AUTO 00000KT 8SM CLR M03/M06 A2994 RMK AO2 SLP139 T10331061
KGON 200256Z 00000KT 10SM CLR M02/M06 A2997 RMK AO2 SLP148 T10221061 58002
KGON 200156Z 26005KT 10SM CLR M01/M06 A2999 RMK AO2 SLP155 T10061061
KGON 200056Z 27005KT 10SM CLR 00/M06 A2999 RMK AO2 SLP154 T00001056
KGON 192356Z 25007KT 10SM CLR 00/M06 A2998 RMK AO2 SLP150 T00001056 10017 21006 51006
KGON 192256Z 26007KT 10SM CLR 00/M06 A2998 RMK AO2 SLP150 T00001061
KGON 192156Z 25009KT 10SM CLR 00/M07 A2997 RMK AO2 SLP149 T00001067
KGON 192056Z 24011KT 10SM CLR 01/M07 A2996 RMK AO2 SLP145 T00061067 55001
KGON 191956Z 24012KT 10SM CLR 01/M07 A2995 RMK AO2 SLP143 T00111067
KGON 191856Z 24011KT 10SM CLR 01/M07 A2995 RMK AO2 SLP140 T00111067
KGON 191756Z 23011KT 10SM CLR 01/M06 A2996 RMK AO2 SLP145 T00111061 10011 21050 58027
KGON 191656Z 24009KT 10SM CLR 00/M07 A2999 RMK AO2 SLP154 T00001072
KGON 191556Z VRB05KT 10SM CLR 00/M08 A3002 RMK AO2 SLP166 T00001083
KGON 191456Z 28007KT 10SM CLR M02/M10 A3004 RMK AO2 SLP172 T10171100 51006